sensor_id;sensor_type;location;lat;lon;timestamp;pressure;altitude;pressure_sealevel;temperature;humidity
59789;BME280;47353;51.614;5.530;2023-06-22T00:02:08;101767.16;;;19.10;76.86
59789;BME280;47353;51.614;5.530;2023-06-22T00:04:33;101765.78;;;19.08;76.95
59789;BME280;47353;51.614;5.530;2023-06-22T00:06:59;101772.31;;;19.03;77.34
59789;BME280;47353;51.614;5.530;2023-06-22T00:09:24;101763.72;;;19.00;77.22
59789;BME280;47353;51.614;5.530;2023-06-22T00:11:49;101757.03;;;18.96;78.21
59789;BME280;47353;51.614;5.530;2023-06-22T00:14:15;101749.56;;;18.91;78.48
59789;BME280;47353;51.614;5.530;2023-06-22T00:16:40;101754.66;;;18.89;79.10
59789;BME280;47353;51.614;5.530;2023-06-22T00:19:08;101771.38;;;18.81;79.73
59789;BME280;47353;51.614;5.530;2023-06-22T00:21:35;101767.41;;;18.82;80.04
59789;BME280;47353;51.614;5.530;2023-06-22T00:24:02;101763.16;;;18.71;80.65
59789;BME280;47353;51.614;5.530;2023-06-22T00:26:28;101760.75;;;18.64;80.97
59789;BME280;47353;51.614;5.530;2023-06-22T00:28:53;101763.66;;;18.59;81.46
59789;BME280;47353;51.614;5.530;2023-06-22T00:31:18;101770.72;;;18.57;81.96
59789;BME280;47353;51.614;5.530;2023-06-22T00:33:44;101771.41;;;18.49;81.97
59789;BME280;47353;51.614;5.530;2023-06-22T00:36:09;101764.13;;;18.48;82.33
59789;BME280;47353;51.614;5.530;2023-06-22T00:38:38;101756.31;;;18.45;82.63
59789;BME280;47353;51.614;5.530;2023-06-22T00:41:05;101765.34;;;18.42;83.27
59789;BME280;47353;51.614;5.530;2023-06-22T00:43:30;101763.69;;;18.41;83.10
59789;BME280;47353;51.614;5.530;2023-06-22T00:45:56;101766.56;;;18.36;83.92
59789;BME280;47353;51.614;5.530;2023-06-22T00:48:22;101753.16;;;18.33;84.58
59789;BME280;47353;51.614;5.530;2023-06-22T00:50:47;101752.66;;;18.31;84.23
59789;BME280;47353;51.614;5.530;2023-06-22T00:53:15;101759.38;;;18.29;84.97
59789;BME280;47353;51.614;5.530;2023-06-22T00:55:43;101762.47;;;18.28;85.23
59789;BME280;47353;51.614;5.530;2023-06-22T00:58:11;101755.84;;;18.24;85.76
59789;BME280;47353;51.614;5.530;2023-06-22T01:00:38;101751.88;;;18.25;86.29
59789;BME280;47353;51.614;5.530;2023-06-22T01:03:04;101753.09;;;18.19;86.13
59789;BME280;47353;51.614;5.530;2023-06-22T01:05:31;101751.75;;;18.16;86.58
59789;BME280;47353;51.614;5.530;2023-06-22T01:10:48;101748.72;;;18.13;87.31
59789;BME280;47353;51.614;5.530;2023-06-22T01:13:28;101738.66;;;18.12;87.97
59789;BME280;47353;51.614;5.530;2023-06-22T01:16:02;101744.56;;;18.10;88.85
59789;BME280;47353;51.614;5.530;2023-06-22T01:18:30;101738.44;;;18.08;88.87
59789;BME280;47353;51.614;5.530;2023-06-22T01:20:56;101740.09;;;18.09;89.22
59789;BME280;47353;51.614;5.530;2023-06-22T01:26:39;101746.63;;;18.05;89.04
59789;BME280;47353;51.614;5.530;2023-06-22T01:29:09;101746.63;;;18.05;89.27
59789;BME280;47353;51.614;5.530;2023-06-22T01:31:39;101751.97;;;18.01;89.72
59789;BME280;47353;51.614;5.530;2023-06-22T01:34:07;101744.19;;;17.98;89.21
59789;BME280;47353;51.614;5.530;2023-06-22T01:36:33;101751.97;;;18.01;89.39
59789;BME280;47353;51.614;5.530;2023-06-22T01:38:59;101747.84;;;17.99;90.20
59789;BME280;47353;51.614;5.530;2023-06-22T01:41:27;101748.69;;;17.99;90.70
59789;BME280;47353;51.614;5.530;2023-06-22T01:43:55;101759.28;;;18.02;91.01
59789;BME280;47353;51.614;5.530;2023-06-22T01:46:21;101753.06;;;18.05;91.11
59789;BME280;47353;51.614;5.530;2023-06-22T01:48:47;101748.81;;;18.08;91.00
59789;BME280;47353;51.614;5.530;2023-06-22T01:51:13;101744.03;;;18.08;90.96
59789;BME280;47353;51.614;5.530;2023-06-22T01:53:38;101749.94;;;18.07;89.94
59789;BME280;47353;51.614;5.530;2023-06-22T01:56:04;101742.59;;;18.11;90.84
59789;BME280;47353;51.614;5.530;2023-06-22T01:58:30;101729.81;;;18.05;90.85
59789;BME280;47353;51.614;5.530;2023-06-22T02:01:02;101731.16;;;18.07;91.36
59789;BME280;47353;51.614;5.530;2023-06-22T02:03:35;101723.97;;;18.01;90.65
59789;BME280;47353;51.614;5.530;2023-06-22T02:06:07;101729.13;;;17.94;91.63
59789;BME280;47353;51.614;5.530;2023-06-22T02:08:48;101732.84;;;17.90;91.56
59789;BME280;47353;51.614;5.530;2023-06-22T02:11:16;101737.19;;;17.82;91.83
59789;BME280;47353;51.614;5.530;2023-06-22T02:13:44;101742.25;;;17.80;91.50
59789;BME280;47353;51.614;5.530;2023-06-22T02:16:11;101739.50;;;17.75;91.90
59789;BME280;47353;51.614;5.530;2023-06-22T02:18:37;101737.56;;;17.76;91.54
59789;BME280;47353;51.614;5.530;2023-06-22T02:21:03;101730.44;;;17.65;92.44
59789;BME280;47353;51.614;5.530;2023-06-22T02:23:28;101742.19;;;17.67;92.34
59789;BME280;47353;51.614;5.530;2023-06-22T02:25:53;101737.78;;;17.61;93.04
59789;BME280;47353;51.614;5.530;2023-06-22T02:28:19;101729.38;;;17.61;93.40
59789;BME280;47353;51.614;5.530;2023-06-22T02:30:44;101732.78;;;17.58;93.72
59789;BME280;47353;51.614;5.530;2023-06-22T02:33:10;101719.16;;;17.51;94.10
59789;BME280;47353;51.614;5.530;2023-06-22T02:35:35;101727.88;;;17.50;94.29
59789;BME280;47353;51.614;5.530;2023-06-22T02:38:02;101728.47;;;17.47;94.58
59789;BME280;47353;51.614;5.530;2023-06-22T02:40:29;101704.50;;;17.36;94.74
59789;BME280;47353;51.614;5.530;2023-06-22T02:42:55;101713.97;;;17.40;94.83
59789;BME280;47353;51.614;5.530;2023-06-22T02:45:20;101715.09;;;17.39;95.22
59789;BME280;47353;51.614;5.530;2023-06-22T02:47:46;101716.00;;;17.34;95.18
59789;BME280;47353;51.614;5.530;2023-06-22T02:50:13;101719.97;;;17.33;95.42
59789;BME280;47353;51.614;5.530;2023-06-22T02:52:38;101702.63;;;17.31;95.55
59789;BME280;47353;51.614;5.530;2023-06-22T02:55:05;101700.56;;;17.18;96.44
59789;BME280;47353;51.614;5.530;2023-06-22T02:57:30;101708.94;;;17.18;96.81
59789;BME280;47353;51.614;5.530;2023-06-22T02:59:56;101697.53;;;17.15;96.28
59789;BME280;47353;51.614;5.530;2023-06-22T03:02:21;101705.69;;;17.11;97.18
59789;BME280;47353;51.614;5.530;2023-06-22T03:04:47;101703.78;;;17.07;97.05
59789;BME280;47353;51.614;5.530;2023-06-22T03:07:14;101700.44;;;17.05;97.04
59789;BME280;47353;51.614;5.530;2023-06-22T03:09:40;101703.00;;;17.01;97.70
59789;BME280;47353;51.614;5.530;2023-06-22T03:12:07;101695.22;;;16.98;97.57
59789;BME280;47353;51.614;5.530;2023-06-22T03:14:33;101679.41;;;16.89;98.20
59789;BME280;47353;51.614;5.530;2023-06-22T03:16:58;101683.28;;;16.93;98.37
59789;BME280;47353;51.614;5.530;2023-06-22T03:19:28;101688.31;;;16.91;98.38
59789;BME280;47353;51.614;5.530;2023-06-22T03:21:55;101686.97;;;16.88;98.57
59789;BME280;47353;51.614;5.530;2023-06-22T03:24:20;101680.28;;;16.84;98.61
59789;BME280;47353;51.614;5.530;2023-06-22T03:26:45;101681.38;;;16.88;98.84
59789;BME280;47353;51.614;5.530;2023-06-22T03:29:12;101676.69;;;16.84;99.44
59789;BME280;47353;51.614;5.530;2023-06-22T03:31:37;101676.13;;;16.82;99.50
59789;BME280;47353;51.614;5.530;2023-06-22T03:34:03;101680.59;;;16.83;99.73
59789;BME280;47353;51.614;5.530;2023-06-22T03:36:28;101680.06;;;16.81;100.00
59789;BME280;47353;51.614;5.530;2023-06-22T03:38:53;101685.88;;;16.84;100.00
59789;BME280;47353;51.614;5.530;2023-06-22T03:41:19;101679.47;;;16.84;100.00
59789;BME280;47353;51.614;5.530;2023-06-22T03:43:44;101681.97;;;16.85;99.95
59789;BME280;47353;51.614;5.530;2023-06-22T03:46:10;101673.34;;;16.82;99.56
59789;BME280;47353;51.614;5.530;2023-06-22T03:48:35;101672.75;;;16.85;99.69
59789;BME280;47353;51.614;5.530;2023-06-22T03:51:01;101686.19;;;16.83;100.00
59789;BME280;47353;51.614;5.530;2023-06-22T03:53:27;101675.59;;;16.80;100.00
59789;BME280;47353;51.614;5.530;2023-06-22T03:55:52;101684.53;;;16.82;100.00
59789;BME280;47353;51.614;5.530;2023-06-22T03:58:19;101676.38;;;16.85;100.00
59789;BME280;47353;51.614;5.530;2023-06-22T04:00:51;101669.66;;;16.86;100.00
59789;BME280;47353;51.614;5.530;2023-06-22T04:03:18;101669.41;;;16.83;100.00
59789;BME280;47353;51.614;5.530;2023-06-22T04:05:46;101664.06;;;16.86;100.00
59789;BME280;47353;51.614;5.530;2023-06-22T04:08:13;101662.34;;;16.90;100.00
59789;BME280;47353;51.614;5.530;2023-06-22T04:10:39;101665.13;;;16.90;100.00
59789;BME280;47353;51.614;5.530;2023-06-22T04:13:04;101662.84;;;16.92;100.00
59789;BME280;47353;51.614;5.530;2023-06-22T04:15:30;101665.34;;;16.94;100.00
59789;BME280;47353;51.614;5.530;2023-06-22T04:17:55;101659.41;;;17.00;100.00
59789;BME280;47353;51.614;5.530;2023-06-22T04:20:21;101668.94;;;16.99;100.00
59789;BME280;47353;51.614;5.530;2023-06-22T04:22:47;101668.84;;;17.04;100.00
59789;BME280;47353;51.614;5.530;2023-06-22T04:25:12;101661.00;;;17.06;100.00
59789;BME280;47353;51.614;5.530;2023-06-22T04:27:38;101660.09;;;17.11;100.00
59789;BME280;47353;51.614;5.530;2023-06-22T04:30:06;101667.56;;;17.15;99.97
59789;BME280;47353;51.614;5.530;2023-06-22T04:32:35;101665.63;;;17.16;100.00
59789;BME280;47353;51.614;5.530;2023-06-22T04:35:04;101671.22;;;17.16;99.94
59789;BME280;47353;51.614;5.530;2023-06-22T04:37:31;101670.31;;;17.20;99.73
59789;BME280;47353;51.614;5.530;2023-06-22T04:39:57;101669.72;;;17.23;100.00
59789;BME280;47353;51.614;5.530;2023-06-22T04:42:22;101670.25;;;17.25;100.00
59789;BME280;47353;51.614;5.530;2023-06-22T04:44:48;101675.47;;;17.32;100.00
59789;BME280;47353;51.614;5.530;2023-06-22T04:47:13;101669.47;;;17.38;100.00
59789;BME280;47353;51.614;5.530;2023-06-22T04:49:39;101673.97;;;17.39;100.00
59789;BME280;47353;51.614;5.530;2023-06-22T04:54:31;101676.56;;;17.54;100.00
59789;BME280;47353;51.614;5.530;2023-06-22T04:56:59;101680.66;;;17.62;100.00
59789;BME280;47353;51.614;5.530;2023-06-22T04:59:26;101673.81;;;17.68;100.00
59789;BME280;47353;51.614;5.530;2023-06-22T05:01:57;101683.72;;;17.79;99.62
59789;BME280;47353;51.614;5.530;2023-06-22T05:04:23;101681.91;;;17.88;99.38
59789;BME280;47353;51.614;5.530;2023-06-22T05:06:50;101683.31;;;18.04;99.29
59789;BME280;47353;51.614;5.530;2023-06-22T05:09:15;101674.22;;;18.12;98.48
59789;BME280;47353;51.614;5.530;2023-06-22T05:11:42;101675.06;;;18.26;98.14
59789;BME280;47353;51.614;5.530;2023-06-22T05:14:08;101672.09;;;18.36;98.02
59789;BME280;47353;51.614;5.530;2023-06-22T05:16:33;101674.22;;;18.44;97.41
59789;BME280;47353;51.614;5.530;2023-06-22T05:18:59;101672.97;;;18.50;96.75
59789;BME280;47353;51.614;5.530;2023-06-22T05:21:26;101668.00;;;18.61;96.87
59789;BME280;47353;51.614;5.530;2023-06-22T05:23:52;101682.44;;;18.68;96.54
59789;BME280;47353;51.614;5.530;2023-06-22T05:26:19;101680.59;;;18.77;96.29
59789;BME280;47353;51.614;5.530;2023-06-22T05:28:46;101675.47;;;18.79;96.04
59789;BME280;47353;51.614;5.530;2023-06-22T05:31:15;101678.91;;;18.89;95.51
59789;BME280;47353;51.614;5.530;2023-06-22T05:33:41;101676.84;;;18.95;94.91
59789;BME280;47353;51.614;5.530;2023-06-22T05:36:07;101690.63;;;19.05;95.27
59789;BME280;47353;51.614;5.530;2023-06-22T05:38:32;101693.66;;;19.08;94.41
59789;BME280;47353;51.614;5.530;2023-06-22T05:40:58;101680.69;;;19.12;94.92
59789;BME280;47353;51.614;5.530;2023-06-22T05:43:23;101674.75;;;19.14;94.31
59789;BME280;47353;51.614;5.530;2023-06-22T05:45:49;101674.44;;;19.15;94.27
59789;BME280;47353;51.614;5.530;2023-06-22T05:48:14;101669.00;;;19.19;93.80
59789;BME280;47353;51.614;5.530;2023-06-22T05:50:39;101665.16;;;19.28;93.45
59789;BME280;47353;51.614;5.530;2023-06-22T05:53:05;101663.59;;;19.36;93.80
59789;BME280;47353;51.614;5.530;2023-06-22T05:55:32;101668.34;;;19.49;93.10
59789;BME280;47353;51.614;5.530;2023-06-22T05:57:57;101662.38;;;19.64;91.50
59789;BME280;47353;51.614;5.530;2023-06-22T06:00:23;101676.03;;;19.79;92.06
59789;BME280;47353;51.614;5.530;2023-06-22T06:02:49;101675.16;;;19.92;91.54
59789;BME280;47353;51.614;5.530;2023-06-22T06:05:15;101675.41;;;20.04;90.36
59789;BME280;47353;51.614;5.530;2023-06-22T06:07:42;101676.22;;;20.18;91.67
59789;BME280;47353;51.614;5.530;2023-06-22T06:10:08;101677.75;;;20.33;90.31
59789;BME280;47353;51.614;5.530;2023-06-22T06:12:33;101682.81;;;20.44;89.94
59789;BME280;47353;51.614;5.530;2023-06-22T06:14:59;101672.31;;;20.58;88.73
59789;BME280;47353;51.614;5.530;2023-06-22T06:17:24;101669.19;;;20.68;88.49
59789;BME280;47353;51.614;5.530;2023-06-22T06:19:50;101657.31;;;20.80;87.58
59789;BME280;47353;51.614;5.530;2023-06-22T06:22:15;101661.19;;;20.92;86.84
59789;BME280;47353;51.614;5.530;2023-06-22T06:24:40;101657.28;;;21.02;86.67
59789;BME280;47353;51.614;5.530;2023-06-22T06:27:06;101663.59;;;21.16;86.07
59789;BME280;47353;51.614;5.530;2023-06-22T06:29:32;101663.63;;;21.33;84.99
59789;BME280;47353;51.614;5.530;2023-06-22T06:31:57;101661.16;;;21.48;84.38
59789;BME280;47353;51.614;5.530;2023-06-22T06:34:23;101671.63;;;21.65;82.92
59789;BME280;47353;51.614;5.530;2023-06-22T06:36:48;101666.16;;;21.86;81.42
59789;BME280;47353;51.614;5.530;2023-06-22T06:39:14;101663.34;;;22.11;80.42
59789;BME280;47353;51.614;5.530;2023-06-22T06:41:41;101661.44;;;22.32;79.46
59789;BME280;47353;51.614;5.530;2023-06-22T06:44:06;101664.41;;;22.44;78.20
59789;BME280;47353;51.614;5.530;2023-06-22T06:46:32;101661.94;;;22.51;76.49
59789;BME280;47353;51.614;5.530;2023-06-22T06:48:57;101655.44;;;22.51;76.76
59789;BME280;47353;51.614;5.530;2023-06-22T06:51:23;101662.06;;;22.55;75.59
59789;BME280;47353;51.614;5.530;2023-06-22T06:53:48;101668.03;;;22.62;76.13
59789;BME280;47353;51.614;5.530;2023-06-22T06:56:13;101665.38;;;22.65;75.45
59789;BME280;47353;51.614;5.530;2023-06-22T06:58:42;101675.56;;;22.87;75.19
59789;BME280;47353;51.614;5.530;2023-06-22T07:01:08;101660.44;;;22.91;75.99
59789;BME280;47353;51.614;5.530;2023-06-22T07:03:34;101662.06;;;22.92;74.95
59789;BME280;47353;51.614;5.530;2023-06-22T07:06:00;101667.69;;;23.01;74.75
59789;BME280;47353;51.614;5.530;2023-06-22T07:08:25;101660.81;;;23.11;74.24
59789;BME280;47353;51.614;5.530;2023-06-22T07:10:52;101659.94;;;23.19;73.45
59789;BME280;47353;51.614;5.530;2023-06-22T07:13:17;101663.09;;;23.17;73.06
59789;BME280;47353;51.614;5.530;2023-06-22T07:15:42;101653.78;;;23.17;72.95
59789;BME280;47353;51.614;5.530;2023-06-22T07:18:08;101659.66;;;23.12;73.14
59789;BME280;47353;51.614;5.530;2023-06-22T07:20:33;101654.00;;;23.12;73.37
59789;BME280;47353;51.614;5.530;2023-06-22T07:22:58;101646.75;;;23.02;74.49
59789;BME280;47353;51.614;5.530;2023-06-22T07:25:24;101650.75;;;23.01;72.65
59789;BME280;47353;51.614;5.530;2023-06-22T07:28:05;101649.56;;;23.02;72.49
59789;BME280;47353;51.614;5.530;2023-06-22T07:30:32;101640.78;;;22.95;71.51
59789;BME280;47353;51.614;5.530;2023-06-22T07:32:58;101646.78;;;22.93;72.15
59789;BME280;47353;51.614;5.530;2023-06-22T07:35:29;101637.06;;;22.82;72.25
59789;BME280;47353;51.614;5.530;2023-06-22T07:37:54;101644.69;;;22.82;72.87
59789;BME280;47353;51.614;5.530;2023-06-22T07:40:19;101643.56;;;22.74;74.29
59789;BME280;47353;51.614;5.530;2023-06-22T07:42:45;101653.19;;;22.73;73.25
59789;BME280;47353;51.614;5.530;2023-06-22T07:45:13;101646.25;;;22.71;72.80
59789;BME280;47353;51.614;5.530;2023-06-22T07:47:39;101646.56;;;22.69;72.23
59789;BME280;47353;51.614;5.530;2023-06-22T07:50:05;101645.06;;;22.72;72.98
59789;BME280;47353;51.614;5.530;2023-06-22T07:52:31;101629.25;;;22.79;73.17
59789;BME280;47353;51.614;5.530;2023-06-22T07:54:56;101633.22;;;22.87;72.17
59789;BME280;47353;51.614;5.530;2023-06-22T07:57:22;101625.34;;;23.01;72.03
59789;BME280;47353;51.614;5.530;2023-06-22T07:59:47;101607.91;;;23.28;69.08
59789;BME280;47353;51.614;5.530;2023-06-22T08:02:13;101610.78;;;23.61;67.66
59789;BME280;47353;51.614;5.530;2023-06-22T08:04:39;101613.50;;;23.90;67.37
59789;BME280;47353;51.614;5.530;2023-06-22T08:07:05;101592.53;;;24.23;67.04
59789;BME280;47353;51.614;5.530;2023-06-22T08:09:46;101595.44;;;24.59;65.89
59789;BME280;47353;51.614;5.530;2023-06-22T08:12:11;101585.88;;;24.88;63.96
59789;BME280;47353;51.614;5.530;2023-06-22T08:14:38;101579.38;;;25.12;63.14
59789;BME280;47353;51.614;5.530;2023-06-22T08:17:04;101581.69;;;25.22;62.71
59789;BME280;47353;51.614;5.530;2023-06-22T08:19:29;101573.22;;;25.34;59.99
59789;BME280;47353;51.614;5.530;2023-06-22T08:21:54;101574.63;;;25.28;60.77
59789;BME280;47353;51.614;5.530;2023-06-22T08:24:20;101570.59;;;25.29;59.58
59789;BME280;47353;51.614;5.530;2023-06-22T08:26:45;101565.03;;;25.32;60.42
59789;BME280;47353;51.614;5.530;2023-06-22T08:29:11;101561.25;;;25.28;59.58
59789;BME280;47353;51.614;5.530;2023-06-22T08:31:36;101557.50;;;25.36;61.55
59789;BME280;47353;51.614;5.530;2023-06-22T08:34:02;101562.56;;;25.43;58.60
59789;BME280;47353;51.614;5.530;2023-06-22T08:36:27;101570.59;;;25.41;59.54
59789;BME280;47353;51.614;5.530;2023-06-22T08:38:55;101566.34;;;25.35;59.82
59789;BME280;47353;51.614;5.530;2023-06-22T08:41:26;101561.97;;;25.37;59.99
59789;BME280;47353;51.614;5.530;2023-06-22T08:43:52;101567.19;;;25.35;58.34
59789;BME280;47353;51.614;5.530;2023-06-22T08:46:19;101561.25;;;25.40;58.80
59789;BME280;47353;51.614;5.530;2023-06-22T08:48:48;101556.91;;;25.31;58.75
59789;BME280;47353;51.614;5.530;2023-06-22T08:51:14;101564.94;;;25.29;58.04
59789;BME280;47353;51.614;5.530;2023-06-22T08:53:39;101563.28;;;25.28;58.98
59789;BME280;47353;51.614;5.530;2023-06-22T08:56:05;101555.84;;;25.23;59.01
59789;BME280;47353;51.614;5.530;2023-06-22T08:58:30;101558.66;;;25.23;58.43
59789;BME280;47353;51.614;5.530;2023-06-22T09:00:55;101555.47;;;25.25;59.75
59789;BME280;47353;51.614;5.530;2023-06-22T09:03:21;101554.78;;;25.28;59.00
59789;BME280;47353;51.614;5.530;2023-06-22T09:05:46;101553.00;;;25.23;59.74
59789;BME280;47353;51.614;5.530;2023-06-22T09:08:11;101548.06;;;25.20;59.30
59789;BME280;47353;51.614;5.530;2023-06-22T09:10:37;101543.94;;;25.18;58.53
59789;BME280;47353;51.614;5.530;2023-06-22T09:13:02;101540.53;;;25.12;58.94
59789;BME280;47353;51.614;5.530;2023-06-22T09:15:28;101534.41;;;25.10;59.66
59789;BME280;47353;51.614;5.530;2023-06-22T09:17:53;101552.94;;;25.08;57.11
59789;BME280;47353;51.614;5.530;2023-06-22T09:20:19;101546.31;;;25.04;58.14
59789;BME280;47353;51.614;5.530;2023-06-22T09:22:45;101545.13;;;25.05;59.94
59789;BME280;47353;51.614;5.530;2023-06-22T09:25:10;101546.56;;;24.99;57.96
59789;BME280;47353;51.614;5.530;2023-06-22T09:27:36;101535.59;;;24.97;58.52
59789;BME280;47353;51.614;5.530;2023-06-22T09:30:01;101535.75;;;24.89;58.12
59789;BME280;47353;51.614;5.530;2023-06-22T09:32:28;101534.66;;;24.93;59.08
59789;BME280;47353;51.614;5.530;2023-06-22T09:34:54;101539.13;;;24.94;61.52
59789;BME280;47353;51.614;5.530;2023-06-22T09:37:19;101534.88;;;25.00;59.52
59789;BME280;47353;51.614;5.530;2023-06-22T09:39:44;101534.31;;;24.95;59.15
59789;BME280;47353;51.614;5.530;2023-06-22T09:42:10;101540.72;;;24.80;59.75
59789;BME280;47353;51.614;5.530;2023-06-22T09:44:36;101530.56;;;24.67;60.85
59789;BME280;47353;51.614;5.530;2023-06-22T09:47:02;101539.91;;;24.67;60.44
59789;BME280;47353;51.614;5.530;2023-06-22T09:49:27;101535.13;;;24.59;62.05
59789;BME280;47353;51.614;5.530;2023-06-22T09:51:53;101529.97;;;24.49;60.68
59789;BME280;47353;51.614;5.530;2023-06-22T09:54:18;101537.72;;;24.40;60.89
59789;BME280;47353;51.614;5.530;2023-06-22T09:56:43;101531.25;;;24.27;62.23
59789;BME280;47353;51.614;5.530;2023-06-22T09:59:09;101525.09;;;24.25;62.06
59789;BME280;47353;51.614;5.530;2023-06-22T10:01:34;101521.56;;;24.16;61.83
59789;BME280;47353;51.614;5.530;2023-06-22T10:04:00;101533.59;;;24.13;65.11
59789;BME280;47353;51.614;5.530;2023-06-22T10:06:25;101523.78;;;24.11;63.91
59789;BME280;47353;51.614;5.530;2023-06-22T10:08:51;101520.38;;;24.05;65.56
59789;BME280;47353;51.614;5.530;2023-06-22T10:11:17;101522.56;;;24.00;66.26
59789;BME280;47353;51.614;5.530;2023-06-22T10:13:42;101529.06;;;24.00;66.37
59789;BME280;47353;51.614;5.530;2023-06-22T10:16:08;101527.22;;;24.04;66.59
59789;BME280;47353;51.614;5.530;2023-06-22T10:18:33;101518.59;;;24.01;66.90
59789;BME280;47353;51.614;5.530;2023-06-22T10:20:59;101516.13;;;24.11;66.76
59789;BME280;47353;51.614;5.530;2023-06-22T10:23:24;101512.25;;;24.16;66.25
59789;BME280;47353;51.614;5.530;2023-06-22T10:25:50;101512.97;;;24.25;65.35
59789;BME280;47353;51.614;5.530;2023-06-22T10:28:15;101518.88;;;24.32;65.57
59789;BME280;47353;51.614;5.530;2023-06-22T10:30:41;101509.69;;;24.35;65.52
59789;BME280;47353;51.614;5.530;2023-06-22T10:33:07;101506.38;;;24.33;65.31
59789;BME280;47353;51.614;5.530;2023-06-22T10:35:33;101508.34;;;24.32;64.11
59789;BME280;47353;51.614;5.530;2023-06-22T10:37:59;101502.59;;;24.29;64.48
59789;BME280;47353;51.614;5.530;2023-06-22T10:40:25;101505.44;;;24.29;64.55
59789;BME280;47353;51.614;5.530;2023-06-22T10:42:50;101505.88;;;24.19;63.99
59789;BME280;47353;51.614;5.530;2023-06-22T10:45:16;101517.41;;;24.14;65.83
59789;BME280;47353;51.614;5.530;2023-06-22T10:47:41;101525.47;;;24.12;66.34
59789;BME280;47353;51.614;5.530;2023-06-22T10:50:10;101534.03;;;24.03;66.76
59789;BME280;47353;51.614;5.530;2023-06-22T10:52:35;101527.44;;;23.99;67.38
59789;BME280;47353;51.614;5.530;2023-06-22T10:55:01;101534.72;;;24.00;68.15
59789;BME280;47353;51.614;5.530;2023-06-22T10:57:26;101534.81;;;23.92;68.25
59789;BME280;47353;51.614;5.530;2023-06-22T10:59:52;101536.06;;;23.82;71.42
59789;BME280;47353;51.614;5.530;2023-06-22T11:02:17;101534.38;;;23.69;71.81
59789;BME280;47353;51.614;5.530;2023-06-22T11:04:43;101546.41;;;23.78;72.83
59789;BME280;47353;51.614;5.530;2023-06-22T11:07:09;101547.22;;;23.67;72.40
59789;BME280;47353;51.614;5.530;2023-06-22T11:09:34;101547.78;;;23.60;73.08
59789;BME280;47353;51.614;5.530;2023-06-22T11:12:00;101548.13;;;23.59;76.00
59789;BME280;47353;51.614;5.530;2023-06-22T11:14:25;101549.25;;;23.46;75.32
59789;BME280;47353;51.614;5.530;2023-06-22T11:16:51;101547.78;;;23.40;76.23
59789;BME280;47353;51.614;5.530;2023-06-22T11:19:16;101559.19;;;23.31;77.18
59789;BME280;47353;51.614;5.530;2023-06-22T11:21:42;101552.94;;;23.17;77.87
59789;BME280;47353;51.614;5.530;2023-06-22T11:24:07;101559.28;;;23.14;83.49
59789;BME280;47353;51.614;5.530;2023-06-22T11:26:33;101568.75;;;22.89;85.45
59789;BME280;47353;51.614;5.530;2023-06-22T11:28:58;101572.84;;;22.71;86.57
59789;BME280;47353;51.614;5.530;2023-06-22T11:31:24;101576.94;;;22.53;88.99
59789;BME280;47353;51.614;5.530;2023-06-22T11:33:50;101562.72;;;22.32;89.32
59789;BME280;47353;51.614;5.530;2023-06-22T11:36:15;101558.59;;;22.30;92.33
59789;BME280;47353;51.614;5.530;2023-06-22T11:38:41;101549.69;;;22.19;92.77
59789;BME280;47353;51.614;5.530;2023-06-22T11:41:08;101562.81;;;22.07;92.12
59789;BME280;47353;51.614;5.530;2023-06-22T11:43:33;101561.69;;;21.99;93.99
59789;BME280;47353;51.614;5.530;2023-06-22T11:46:01;101563.50;;;21.95;94.73
59789;BME280;47353;51.614;5.530;2023-06-22T11:48:26;101566.84;;;21.89;95.49
59789;BME280;47353;51.614;5.530;2023-06-22T11:50:52;101576.84;;;21.78;96.12
59789;BME280;47353;51.614;5.530;2023-06-22T11:53:17;101571.19;;;21.61;96.66
59789;BME280;47353;51.614;5.530;2023-06-22T11:55:44;101562.56;;;21.57;98.26
59789;BME280;47353;51.614;5.530;2023-06-22T11:58:09;101562.88;;;21.47;97.24
59789;BME280;47353;51.614;5.530;2023-06-22T12:00:35;101554.44;;;21.47;99.98
59789;BME280;47353;51.614;5.530;2023-06-22T12:03:00;101540.53;;;21.42;100.00
59789;BME280;47353;51.614;5.530;2023-06-22T12:05:26;101525.44;;;21.38;98.48
59789;BME280;47353;51.614;5.530;2023-06-22T12:07:53;101512.69;;;21.32;96.77
59789;BME280;47353;51.614;5.530;2023-06-22T12:10:18;101506.22;;;21.40;96.26
59789;BME280;47353;51.614;5.530;2023-06-22T12:12:44;101500.75;;;21.35;96.91
59789;BME280;47353;51.614;5.530;2023-06-22T12:15:09;101494.97;;;21.31;97.30
59789;BME280;47353;51.614;5.530;2023-06-22T12:17:36;101503.28;;;21.28;97.93
59789;BME280;47353;51.614;5.530;2023-06-22T12:20:02;101496.50;;;21.20;97.95
59789;BME280;47353;51.614;5.530;2023-06-22T12:22:33;101488.03;;;21.12;98.32
59789;BME280;47353;51.614;5.530;2023-06-22T12:24:59;101488.53;;;21.05;98.36
59789;BME280;47353;51.614;5.530;2023-06-22T12:27:25;101480.06;;;21.05;98.11
59789;BME280;47353;51.614;5.530;2023-06-22T12:29:50;101477.13;;;21.02;97.96
59789;BME280;47353;51.614;5.530;2023-06-22T12:32:16;101475.31;;;20.97;98.28
59789;BME280;47353;51.614;5.530;2023-06-22T12:34:42;101480.88;;;20.89;98.45
59789;BME280;47353;51.614;5.530;2023-06-22T12:37:08;101482.38;;;20.86;98.48
59789;BME280;47353;51.614;5.530;2023-06-22T12:39:33;101471.28;;;20.81;99.07
59789;BME280;47353;51.614;5.530;2023-06-22T12:41:59;101479.38;;;20.83;99.43
59789;BME280;47353;51.614;5.530;2023-06-22T12:44:24;101477.53;;;20.70;98.52
59789;BME280;47353;51.614;5.530;2023-06-22T12:46:50;101474.06;;;20.73;99.51
59789;BME280;47353;51.614;5.530;2023-06-22T12:49:15;101468.78;;;20.63;100.00
59789;BME280;47353;51.614;5.530;2023-06-22T12:51:42;101470.94;;;20.57;99.89
59789;BME280;47353;51.614;5.530;2023-06-22T12:54:08;101463.97;;;20.55;99.98